createdAt,value
2022-11-07T00:02:15.115Z,14.40
2022-11-07T00:04:44.151Z,13.95
2022-11-07T00:07:12.409Z,13.27
2022-11-07T00:09:40.748Z,13.50
2022-11-07T00:12:08.993Z,12.02
2022-11-07T00:14:37.193Z,16.65
2022-11-07T00:17:05.408Z,14.27
2022-11-07T00:19:33.851Z,17.08
2022-11-07T00:22:02.027Z,14.65
2022-11-07T00:24:30.249Z,14.60
2022-11-07T00:26:58.492Z,16.15
2022-11-07T00:29:27.324Z,14.02
2022-11-07T00:31:56.028Z,15.73
2022-11-07T00:34:24.119Z,16.20
2022-11-07T00:36:52.337Z,13.10
2022-11-07T00:39:20.475Z,16.58
2022-11-07T00:41:51.375Z,15.85
2022-11-07T00:44:19.580Z,16.67
2022-11-07T00:46:47.677Z,15.40
2022-11-07T00:49:15.843Z,13.88
2022-11-07T00:51:44.000Z,17.58
2022-11-07T00:54:12.155Z,12.55
2022-11-07T00:56:40.304Z,14.00
2022-11-07T00:59:08.806Z,14.32
2022-11-07T01:01:37.254Z,14.27
2022-11-07T01:04:23.813Z,13.48
2022-11-07T01:06:54.604Z,14.35
2022-11-07T01:09:23.070Z,15.20
2022-11-07T01:11:53.536Z,13.70
2022-11-07T01:14:22.988Z,13.70
2022-11-07T01:16:51.708Z,14.65
2022-11-07T01:19:20.222Z,15.20
2022-11-07T01:21:48.615Z,12.90
2022-11-07T01:24:18.071Z,10.18
2022-11-07T01:26:53.017Z,16.67
2022-11-07T01:29:21.369Z,11.45
2022-11-07T01:31:49.620Z,12.95
2022-11-07T01:34:18.474Z,11.07
2022-11-07T01:36:46.923Z,16.20
2022-11-07T01:39:15.153Z,11.63
2022-11-07T01:41:43.390Z,12.13
2022-11-07T01:44:11.549Z,11.40
2022-11-07T01:46:46.408Z,12.48
2022-11-07T01:49:20.930Z,9.73
2022-11-07T01:51:55.081Z,10.77
2022-11-07T01:54:31.730Z,10.32
2022-11-07T01:57:04.121Z,10.25
2022-11-07T01:59:34.662Z,14.30
2022-11-07T02:02:05.108Z,7.90
2022-11-07T02:04:33.494Z,12.13
2022-11-07T02:07:14.497Z,8.95
2022-11-07T02:09:43.447Z,9.38
2022-11-07T02:12:14.205Z,10.45
2022-11-07T02:14:43.498Z,7.53
2022-11-07T02:17:13.447Z,7.40
2022-11-07T02:19:53.837Z,6.78
2022-11-07T02:22:39.888Z,7.57
2022-11-07T02:25:11.618Z,9.15
2022-11-07T02:27:40.921Z,7.20
2022-11-07T02:30:13.359Z,7.07
2022-11-07T02:32:41.627Z,5.33
2022-11-07T02:35:28.643Z,8.85
2022-11-07T02:37:57.044Z,6.18
2022-11-07T02:40:26.715Z,8.55
2022-11-07T02:42:55.357Z,7.38
2022-11-07T02:45:29.662Z,7.13
2022-11-07T02:47:57.868Z,7.00
2022-11-07T02:50:26.355Z,7.80
2022-11-07T02:52:54.466Z,5.18
2022-11-07T02:55:22.860Z,6.68
2022-11-07T02:57:51.039Z,5.35
2022-11-07T03:00:19.319Z,5.72
2022-11-07T03:02:47.678Z,8.05
2022-11-07T03:05:20.644Z,6.15
2022-11-07T03:07:50.344Z,8.30
2022-11-07T03:10:19.158Z,5.85
2022-11-07T03:12:47.298Z,5.35
2022-11-07T03:15:15.876Z,5.82
2022-11-07T03:17:44.052Z,5.68
2022-11-07T03:20:12.854Z,6.13
2022-11-07T03:22:41.053Z,5.38
2022-11-07T03:25:09.553Z,6.03
2022-11-07T03:27:45.523Z,6.75
2022-11-07T03:30:13.839Z,9.02
2022-11-07T03:32:42.206Z,6.38
2022-11-07T03:35:10.891Z,5.55
2022-11-07T03:37:39.018Z,5.97
2022-11-07T03:40:08.085Z,6.53
2022-11-07T03:42:44.204Z,7.32
2022-11-07T03:45:14.778Z,4.68
2022-11-07T03:47:47.789Z,5.93
2022-11-07T03:50:20.065Z,6.13
2022-11-07T03:52:49.012Z,7.32
2022-11-07T03:55:22.921Z,5.38
2022-11-07T03:57:51.050Z,7.38
2022-11-07T04:00:19.376Z,7.50
2022-11-07T04:02:47.649Z,7.97
2022-11-07T04:05:16.177Z,7.38
2022-11-07T04:07:44.396Z,7.25
2022-11-07T04:10:12.862Z,7.05
2022-11-07T04:12:59.432Z,8.80
2022-11-07T04:15:45.938Z,7.93
2022-11-07T04:18:14.162Z,8.45
2022-11-07T04:20:42.433Z,8.10
2022-11-07T04:23:10.613Z,9.25
2022-11-07T04:26:00.116Z,6.00
2022-11-07T04:28:31.278Z,5.55
2022-11-07T04:30:59.396Z,7.43
2022-11-07T04:33:27.618Z,6.65
2022-11-07T04:35:55.762Z,7.75
2022-11-07T04:38:24.235Z,9.02
2022-11-07T04:40:59.202Z,5.88
2022-11-07T04:43:28.706Z,7.03
2022-11-07T04:45:57.064Z,6.10
2022-11-07T04:48:25.289Z,6.30
2022-11-07T04:50:53.494Z,6.30
2022-11-07T04:53:21.692Z,7.38
2022-11-07T04:55:52.786Z,12.07
2022-11-07T04:58:20.927Z,8.05
2022-11-07T05:00:49.058Z,8.70
2022-11-07T05:03:17.519Z,7.43
2022-11-07T05:05:46.006Z,6.15
2022-11-07T05:08:14.199Z,6.22
2022-11-07T05:10:42.416Z,7.97
2022-11-07T05:13:10.564Z,6.60
2022-11-07T05:15:39.017Z,8.25
2022-11-07T05:18:07.209Z,7.07
2022-11-07T05:20:37.718Z,6.22
2022-11-07T05:23:13.047Z,8.38
2022-11-07T05:25:43.823Z,9.18
2022-11-07T05:28:14.085Z,7.20
2022-11-07T05:30:43.473Z,6.10
2022-11-07T05:33:14.838Z,5.88
2022-11-07T05:35:43.647Z,6.82
2022-11-07T05:38:12.328Z,7.22
2022-11-07T05:40:41.699Z,6.43
2022-11-07T05:43:13.715Z,7.80
2022-11-07T05:45:42.651Z,5.38
2022-11-07T05:48:12.912Z,7.10
2022-11-07T05:50:41.520Z,8.65
2022-11-07T05:53:09.819Z,8.73
2022-11-07T05:55:38.045Z,7.05
2022-11-07T05:58:12.699Z,9.02
2022-11-07T06:00:41.596Z,5.70
2022-11-07T06:03:09.957Z,6.88
2022-11-07T06:05:42.296Z,4.82
2022-11-07T06:08:13.250Z,8.15
2022-11-07T06:10:43.257Z,9.70
2022-11-07T06:13:16.873Z,11.85
2022-11-07T06:15:46.566Z,8.30
2022-11-07T06:18:20.418Z,11.15
2022-11-07T06:20:48.634Z,6.18
2022-11-07T06:23:17.523Z,11.15
2022-11-07T06:25:46.206Z,6.68
2022-11-07T06:28:15.569Z,9.07
2022-11-07T06:30:45.422Z,17.50
2022-11-07T06:33:19.319Z,13.88
2022-11-07T06:35:47.815Z,12.82
2022-11-07T06:38:16.288Z,12.63
2022-11-07T06:40:45.732Z,12.55
2022-11-07T06:43:17.802Z,11.15
2022-11-07T06:45:47.723Z,16.02
2022-11-07T06:48:16.095Z,9.82
2022-11-07T06:50:44.213Z,12.38
2022-11-07T06:53:14.285Z,10.68
2022-11-07T06:55:42.879Z,14.88
2022-11-07T06:58:10.984Z,8.23
2022-11-07T07:00:39.245Z,13.65
2022-11-07T07:03:07.535Z,10.18
2022-11-07T07:05:35.838Z,17.35
2022-11-07T07:08:08.035Z,14.82
2022-11-07T07:10:39.300Z,13.88
2022-11-07T07:13:07.533Z,10.35
2022-11-07T07:15:49.949Z,13.38
2022-11-07T07:20:51.913Z,16.63
2022-11-07T07:23:21.338Z,11.23
2022-11-07T07:25:49.670Z,10.65
2022-11-07T07:28:17.869Z,11.35
2022-11-07T07:30:51.367Z,9.07
2022-11-07T07:33:21.155Z,12.55
2022-11-07T07:35:49.275Z,12.77
2022-11-07T07:38:17.452Z,10.73
2022-11-07T07:40:45.618Z,9.52
2022-11-07T07:43:14.085Z,10.50
2022-11-07T07:45:42.468Z,12.27
2022-11-07T07:48:10.689Z,14.07
2022-11-07T07:50:38.865Z,14.27
2022-11-07T07:53:09.263Z,12.32
2022-11-07T07:55:37.749Z,10.40
2022-11-07T07:58:08.283Z,11.20
2022-11-07T08:00:36.837Z,10.55
2022-11-07T08:03:10.836Z,12.75
2022-11-07T08:05:39.777Z,9.77
2022-11-07T08:08:10.483Z,12.60
2022-11-07T08:10:42.326Z,10.13
2022-11-07T08:13:10.920Z,14.32
2022-11-07T08:15:39.103Z,11.35
2022-11-07T08:18:07.465Z,11.05
2022-11-07T08:20:35.613Z,12.18
2022-11-07T08:23:12.681Z,14.73
2022-11-07T08:25:55.038Z,11.75
2022-11-07T08:28:28.262Z,10.02
2022-11-07T08:31:07.037Z,16.55
2022-11-07T08:33:35.958Z,11.50
2022-11-07T08:36:05.836Z,10.73
2022-11-07T08:38:36.126Z,9.63
2022-11-07T08:41:05.488Z,9.55
2022-11-07T08:43:33.699Z,10.00
2022-11-07T08:46:01.933Z,8.50
2022-11-07T08:48:30.123Z,8.00
2022-11-07T08:50:59.341Z,8.77
2022-11-07T08:53:27.938Z,9.75
2022-11-07T08:56:07.879Z,8.43
2022-11-07T08:58:37.437Z,9.10
2022-11-07T09:01:09.502Z,8.20
2022-11-07T09:03:46.232Z,12.98
2022-11-07T09:06:18.714Z,10.50
2022-11-07T09:08:46.922Z,9.15
2022-11-07T09:11:15.881Z,8.18
2022-11-07T09:13:44.821Z,9.68
2022-11-07T09:16:17.127Z,11.43
2022-11-07T09:18:46.834Z,11.25
2022-11-07T09:21:20.776Z,10.80
2022-11-07T09:23:51.860Z,8.75
2022-11-07T09:26:20.086Z,9.90
2022-11-07T09:28:51.669Z,10.02
2022-11-07T09:31:21.644Z,13.07
2022-11-07T09:33:49.885Z,10.73
2022-11-07T09:36:18.050Z,11.40
2022-11-07T09:38:46.312Z,11.60
2022-11-07T09:41:24.317Z,17.02
2022-11-07T09:44:09.605Z,13.40
2022-11-07T09:47:10.015Z,14.88
2022-11-07T09:49:44.688Z,12.15
2022-11-07T09:52:19.866Z,12.02
2022-11-07T09:54:53.640Z,13.35
2022-11-07T09:57:22.477Z,17.73
2022-11-07T10:00:14.947Z,13.63
2022-11-07T10:02:56.007Z,14.55
2022-11-07T10:05:51.357Z,18.25
2022-11-07T10:08:53.132Z,16.58
2022-11-07T10:11:40.350Z,13.90
2022-11-07T10:14:41.929Z,16.35
2022-11-07T10:17:21.675Z,14.75
2022-11-07T10:20:23.476Z,17.55
2022-11-07T10:23:04.293Z,17.90
2022-11-07T10:26:05.071Z,16.20
2022-11-07T10:28:37.526Z,15.70
2022-11-07T10:31:10.978Z,13.80
2022-11-07T10:36:25.042Z,19.05
2022-11-07T10:38:53.493Z,16.48
2022-11-07T10:41:25.027Z,15.18
2022-11-07T10:44:04.467Z,18.83
2022-11-07T10:46:40.439Z,16.75
2022-11-07T10:49:34.972Z,21.48
2022-11-07T10:52:18.422Z,17.23
2022-11-07T10:54:47.119Z,20.13
2022-11-07T10:57:23.692Z,18.63
2022-11-07T10:59:59.358Z,24.10
2022-11-07T11:02:42.012Z,20.15
2022-11-07T11:05:26.411Z,20.70
2022-11-07T11:08:08.658Z,18.35
2022-11-07T11:10:39.420Z,16.35
2022-11-07T11:13:07.668Z,20.73
2022-11-07T11:15:45.870Z,18.90
2022-11-07T11:18:18.148Z,21.00
2022-11-07T11:20:58.106Z,21.88
2022-11-07T11:23:31.831Z,17.58
2022-11-07T11:26:08.596Z,19.60
2022-11-07T11:28:42.506Z,17.83
2022-11-07T11:31:29.281Z,18.92
2022-11-07T11:34:03.013Z,17.98
2022-11-07T11:36:39.493Z,16.63
2022-11-07T11:39:27.515Z,21.45
2022-11-07T11:42:00.396Z,18.65
2022-11-07T11:44:44.166Z,17.92
2022-11-07T11:47:34.512Z,14.75
2022-11-07T11:50:19.224Z,20.00
2022-11-07T11:52:47.470Z,17.52
2022-11-07T11:55:19.509Z,20.05
2022-11-07T11:58:21.605Z,18.00
2022-11-07T12:01:22.292Z,21.30
2022-11-07T12:04:16.291Z,18.70
2022-11-07T12:06:46.890Z,18.67
2022-11-07T12:09:42.224Z,21.40
2022-11-07T12:12:16.688Z,20.50
2022-11-07T12:14:58.038Z,20.05
2022-11-07T12:17:45.575Z,18.25
2022-11-07T12:20:29.373Z,18.25
2022-11-07T12:23:25.231Z,17.15
2022-11-07T12:26:06.066Z,19.15
2022-11-07T12:28:46.979Z,20.73
2022-11-07T12:32:02.193Z,20.17
2022-11-07T12:34:55.345Z,21.15
2022-11-07T12:37:48.373Z,20.75
2022-11-07T12:40:41.296Z,18.00
2022-11-07T12:43:34.558Z,19.00
2022-11-07T12:46:20.432Z,21.00
2022-11-07T12:49:07.282Z,21.65
2022-11-07T12:51:45.044Z,17.35
2022-11-07T12:54:31.908Z,21.95
2022-11-07T12:57:02.861Z,20.30
2022-11-07T12:59:32.643Z,21.50
2022-11-07T13:02:16.472Z,23.13
2022-11-07T13:05:03.463Z,19.10
2022-11-07T13:08:02.738Z,20.10
2022-11-07T13:10:51.145Z,19.13
2022-11-07T13:13:29.476Z,21.95
2022-11-07T13:16:15.576Z,21.08
2022-11-07T13:18:44.162Z,22.25
2022-11-07T13:21:12.520Z,22.73
2022-11-07T13:23:41.537Z,26.52
2022-11-07T13:26:45.221Z,22.48
2022-11-07T13:29:04.548Z,25.20
2022-11-07T13:31:35.862Z,21.90
2022-11-07T13:34:19.978Z,23.70
2022-11-07T13:36:50.263Z,20.23
2022-11-07T13:39:19.779Z,24.98
2022-11-07T13:41:49.117Z,22.95
2022-11-07T13:44:29.018Z,21.35
2022-11-07T13:47:01.853Z,20.02
2022-11-07T13:49:44.829Z,21.17
2022-11-07T13:52:39.038Z,18.77
2022-11-07T13:55:18.731Z,22.55
2022-11-07T13:57:51.892Z,20.25
2022-11-07T14:00:21.373Z,21.58
2022-11-07T14:02:58.066Z,21.35
2022-11-07T14:05:36.682Z,23.23
2022-11-07T14:08:21.322Z,20.40
2022-11-07T14:10:51.507Z,28.05
2022-11-07T14:13:28.340Z,22.67
2022-11-07T14:16:01.586Z,22.60
2022-11-07T14:21:02.295Z,21.90
2022-11-07T14:23:32.809Z,24.25
2022-11-07T14:26:20.973Z,21.38
2022-11-07T14:28:49.975Z,23.40
2022-11-07T14:31:33.802Z,23.60
2022-11-07T14:34:14.246Z,23.08
2022-11-07T14:36:53.472Z,25.55
2022-11-07T14:39:23.114Z,20.45
2022-11-07T14:41:52.842Z,18.65
2022-11-07T14:44:47.671Z,28.45
2022-11-07T14:47:23.381Z,20.45
2022-11-07T14:49:53.029Z,20.42
2022-11-07T14:52:28.662Z,21.50
2022-11-07T14:55:06.056Z,23.73
2022-11-07T14:57:37.457Z,22.52
2022-11-07T15:00:08.431Z,22.33
2022-11-07T15:02:36.949Z,18.20
2022-11-07T15:05:10.966Z,21.02
2022-11-07T15:07:48.409Z,20.35
2022-11-07T15:10:27.711Z,22.70
2022-11-07T15:12:59.927Z,22.50
2022-11-07T15:15:35.423Z,26.40
2022-11-07T15:18:07.564Z,24.63
2022-11-07T15:20:38.426Z,29.98
2022-11-07T15:23:35.952Z,31.27
2022-11-07T15:26:07.057Z,25.60
2022-11-07T15:28:50.073Z,28.48
2022-11-07T15:31:22.743Z,22.35
2022-11-07T15:33:52.382Z,24.95
2022-11-07T15:36:20.925Z,26.48
2022-11-07T15:38:50.330Z,21.67
2022-11-07T15:41:19.469Z,21.13
2022-11-07T15:43:47.725Z,21.52
2022-11-07T15:46:40.185Z,22.77
2022-11-07T15:49:11.553Z,25.52
2022-11-07T15:51:40.336Z,26.80
2022-11-07T15:54:14.421Z,27.35
2022-11-07T15:56:42.819Z,24.10
2022-11-07T15:59:22.570Z,21.60
2022-11-07T16:01:50.891Z,22.13
2022-11-07T16:04:19.191Z,25.42
2022-11-07T16:06:47.719Z,25.38
2022-11-07T16:09:19.556Z,23.00
2022-11-07T16:11:48.210Z,21.17
2022-11-07T16:14:43.012Z,31.90
2022-11-07T16:17:17.911Z,30.77
2022-11-07T16:19:46.205Z,25.08
2022-11-07T16:22:15.612Z,27.92
2022-11-07T16:24:43.851Z,26.15
2022-11-07T16:27:17.273Z,27.73
2022-11-07T16:29:45.630Z,34.08
2022-11-07T16:32:17.863Z,36.45
2022-11-07T16:34:47.705Z,31.10
2022-11-07T16:37:15.961Z,32.75
2022-11-07T16:39:44.466Z,32.58
2022-11-07T16:42:18.947Z,30.90
2022-11-07T16:44:49.222Z,27.55
2022-11-07T16:47:19.070Z,28.33
2022-11-07T16:49:49.057Z,35.25
2022-11-07T16:52:20.113Z,32.53
2022-11-07T16:54:48.291Z,38.08
2022-11-07T16:57:18.247Z,38.10
2022-11-07T16:59:47.227Z,32.47
2022-11-07T17:02:21.869Z,32.30
2022-11-07T17:04:52.699Z,31.67
2022-11-07T17:07:24.328Z,23.40
2022-11-07T17:09:52.603Z,21.38
2022-11-07T17:12:22.536Z,23.92
2022-11-07T17:14:51.158Z,24.38
2022-11-07T17:17:20.541Z,22.08
2022-11-07T17:19:48.751Z,30.40
2022-11-07T17:22:17.850Z,31.70
2022-11-07T17:24:46.142Z,30.95
2022-11-07T17:27:25.407Z,29.88
2022-11-07T17:29:56.289Z,27.95
2022-11-07T17:32:28.924Z,26.13
2022-11-07T17:35:18.246Z,28.92
2022-11-07T17:37:46.491Z,26.70
2022-11-07T17:40:22.221Z,22.42
2022-11-07T17:42:50.992Z,24.48
2022-11-07T17:45:19.353Z,21.40
2022-11-07T17:47:47.566Z,21.52
2022-11-07T17:50:24.103Z,27.73
2022-11-07T17:52:54.057Z,24.40
2022-11-07T17:55:24.917Z,21.25
2022-11-07T17:57:53.071Z,27.00
2022-11-07T18:00:24.974Z,28.05
2022-11-07T18:02:56.873Z,28.25
2022-11-07T18:05:31.727Z,29.33
2022-11-07T18:08:02.943Z,28.40
2022-11-07T18:10:34.290Z,24.92
2022-11-07T18:13:06.364Z,28.90
2022-11-07T18:15:35.387Z,29.13
2022-11-07T18:18:11.143Z,27.37
2022-11-07T18:20:40.059Z,30.90
2022-11-07T18:23:08.222Z,27.58
2022-11-07T18:25:37.662Z,27.05
2022-11-07T18:28:09.739Z,26.60
2022-11-07T18:30:38.431Z,32.67
2022-11-07T18:33:07.458Z,36.25
2022-11-07T18:35:35.684Z,34.10
2022-11-07T18:38:03.868Z,37.58
2022-11-07T18:40:35.098Z,37.90
2022-11-07T18:43:03.287Z,41.13
2022-11-07T18:45:31.426Z,41.13
2022-11-07T18:47:59.541Z,48.22
2022-11-07T18:50:27.661Z,41.45
2022-11-07T18:52:55.805Z,41.97
2022-11-07T18:55:27.451Z,50.03
2022-11-07T18:57:59.322Z,50.15
2022-11-07T19:00:28.054Z,49.45
2022-11-07T19:02:56.371Z,48.80
2022-11-07T19:05:24.523Z,49.25
2022-11-07T19:07:52.636Z,38.45
2022-11-07T19:10:20.887Z,36.45
2022-11-07T19:12:49.033Z,32.15
2022-11-07T19:15:24.867Z,35.83
2022-11-07T19:20:21.361Z,40.13
2022-11-07T19:22:49.539Z,39.00
2022-11-07T19:25:18.946Z,35.22
2022-11-07T19:27:47.677Z,37.28
2022-11-07T19:30:16.340Z,36.47
2022-11-07T19:32:44.634Z,38.15
2022-11-07T19:35:12.795Z,32.95
2022-11-07T19:37:41.265Z,36.70
2022-11-07T19:40:10.104Z,36.63
2022-11-07T19:42:38.303Z,38.92
2022-11-07T19:45:07.130Z,38.97
2022-11-07T19:47:35.331Z,31.10
2022-11-07T19:50:03.848Z,34.40
2022-11-07T19:52:32.100Z,35.25
2022-11-07T19:55:00.288Z,37.28
2022-11-07T19:57:28.520Z,37.00
2022-11-07T19:59:56.844Z,40.88
2022-11-07T20:02:34.387Z,34.80
2022-11-07T20:05:04.266Z,33.38
2022-11-07T20:07:32.411Z,35.55
2022-11-07T20:10:01.384Z,35.60
2022-11-07T20:12:29.608Z,34.97
2022-11-07T20:14:57.813Z,30.23
2022-11-07T20:17:25.901Z,37.28
2022-11-07T20:19:54.085Z,32.47
2022-11-07T20:22:22.283Z,31.70
2022-11-07T20:24:50.835Z,33.42
2022-11-07T20:27:19.015Z,29.67
2022-11-07T20:29:47.376Z,26.10
2022-11-07T20:32:15.551Z,30.50
2022-11-07T20:34:43.832Z,31.30
2022-11-07T20:37:12.027Z,27.30
2022-11-07T20:39:44.291Z,37.10
2022-11-07T20:42:13.838Z,39.95
2022-11-07T20:44:45.095Z,38.15
2022-11-07T20:47:13.391Z,37.47
2022-11-07T20:49:42.298Z,33.22
2022-11-07T20:52:10.855Z,34.00
2022-11-07T20:54:39.033Z,33.28
2022-11-07T20:57:08.716Z,31.23
2022-11-07T20:59:37.196Z,33.08
2022-11-07T21:02:05.381Z,29.52
2022-11-07T21:04:50.103Z,31.42
2022-11-07T21:07:25.633Z,27.55
2022-11-07T21:09:54.577Z,27.52
2022-11-07T21:12:22.680Z,29.70
2022-11-07T21:14:50.807Z,31.00
2022-11-07T21:17:19.007Z,29.67
2022-11-07T21:19:47.753Z,28.63
2022-11-07T21:22:15.880Z,32.20
2022-11-07T21:24:47.620Z,37.13
2022-11-07T21:27:15.815Z,29.17
2022-11-07T21:29:44.257Z,30.38
2022-11-07T21:32:12.480Z,33.97
2022-11-07T21:34:40.748Z,28.42
2022-11-07T21:37:08.980Z,27.90
2022-11-07T21:39:37.575Z,25.63
2022-11-07T21:42:05.868Z,27.70
2022-11-07T21:44:33.988Z,29.90
2022-11-07T21:47:02.284Z,30.20
2022-11-07T21:49:30.445Z,34.53
2022-11-07T21:51:58.644Z,35.20
2022-11-07T21:54:26.814Z,32.15
2022-11-07T21:56:54.928Z,31.15
2022-11-07T21:59:23.432Z,31.67
2022-11-07T22:01:53.928Z,29.13
2022-11-07T22:04:22.256Z,34.00
2022-11-07T22:06:51.724Z,36.50
2022-11-07T22:09:22.399Z,33.13
2022-11-07T22:11:50.988Z,34.67
2022-11-07T22:14:21.775Z,31.67
2022-11-07T22:16:54.931Z,33.15
2022-11-07T22:19:23.137Z,39.28
2022-11-07T22:21:51.325Z,30.42
2022-11-07T22:24:19.447Z,35.50
2022-11-07T22:26:47.730Z,28.52
2022-11-07T22:29:21.334Z,31.05
2022-11-07T22:31:49.532Z,32.00
2022-11-07T22:34:17.712Z,34.08
2022-11-07T22:36:45.852Z,30.95
2022-11-07T22:39:14.020Z,31.45
2022-11-07T22:41:42.230Z,28.70
2022-11-07T22:44:10.464Z,30.73
2022-11-07T22:46:41.454Z,29.27
2022-11-07T22:49:10.773Z,24.40
2022-11-07T22:51:38.940Z,32.67
2022-11-07T22:54:10.241Z,25.38
2022-11-07T22:56:38.403Z,26.08
2022-11-07T22:59:07.514Z,27.23
2022-11-07T23:01:39.517Z,25.55
2022-11-07T23:04:10.228Z,24.23
2022-11-07T23:06:38.361Z,29.10
2022-11-07T23:09:07.094Z,28.73
2022-11-07T23:11:51.625Z,27.58
2022-11-07T23:14:21.449Z,29.85
2022-11-07T23:16:52.695Z,30.80
2022-11-07T23:19:23.168Z,26.45
2022-11-07T23:21:53.648Z,31.63
2022-11-07T23:24:22.057Z,29.63
2022-11-07T23:26:50.453Z,28.40
2022-11-07T23:29:23.915Z,26.55
2022-11-07T23:31:53.511Z,28.92
2022-11-07T23:34:22.702Z,29.65
2022-11-07T23:36:52.305Z,28.23
2022-11-07T23:39:22.768Z,29.90
2022-11-07T23:41:51.139Z,24.90
2022-11-07T23:44:19.391Z,24.15
2022-11-07T23:47:06.441Z,30.52
2022-11-07T23:49:53.044Z,25.48
2022-11-07T23:52:21.494Z,28.13
2022-11-07T23:55:08.189Z,27.85
2022-11-07T23:57:57.421Z,28.13
